sensor_id;sensor_type;location;lat;lon;timestamp;P1;durP1;ratioP1;P2;durP2;ratioP2
55134;SDS011;41031;44.750;11.308;2023-08-24T00:01:04;11.73;;;10.10;;
55134;SDS011;41031;44.750;11.308;2023-08-24T00:03:31;12.90;;;9.17;;
55134;SDS011;41031;44.750;11.308;2023-08-24T00:05:59;13.40;;;8.60;;
55134;SDS011;41031;44.750;11.308;2023-08-24T00:08:26;11.53;;;7.97;;
55134;SDS011;41031;44.750;11.308;2023-08-24T00:10:53;11.47;;;8.23;;
55134;SDS011;41031;44.750;11.308;2023-08-24T00:13:20;10.87;;;8.77;;
55134;SDS011;41031;44.750;11.308;2023-08-24T00:15:48;11.73;;;9.20;;
55134;SDS011;41031;44.750;11.308;2023-08-24T00:18:15;13.57;;;8.37;;
55134;SDS011;41031;44.750;11.308;2023-08-24T00:20:44;11.20;;;8.93;;
55134;SDS011;41031;44.750;11.308;2023-08-24T00:23:12;11.70;;;10.50;;
55134;SDS011;41031;44.750;11.308;2023-08-24T00:25:39;10.63;;;9.43;;
55134;SDS011;41031;44.750;11.308;2023-08-24T00:28:09;16.37;;;9.80;;
55134;SDS011;41031;44.750;11.308;2023-08-24T00:30:36;10.23;;;9.27;;
55134;SDS011;41031;44.750;11.308;2023-08-24T00:33:04;11.63;;;8.93;;
55134;SDS011;41031;44.750;11.308;2023-08-24T00:35:31;10.80;;;8.83;;
55134;SDS011;41031;44.750;11.308;2023-08-24T00:37:58;11.67;;;9.37;;
55134;SDS011;41031;44.750;11.308;2023-08-24T00:40:26;16.03;;;9.57;;
55134;SDS011;41031;44.750;11.308;2023-08-24T00:42:53;12.03;;;8.63;;
55134;SDS011;41031;44.750;11.308;2023-08-24T00:45:20;11.33;;;8.70;;
55134;SDS011;41031;44.750;11.308;2023-08-24T00:47:47;11.70;;;9.17;;
55134;SDS011;41031;44.750;11.308;2023-08-24T00:50:16;11.03;;;9.90;;
55134;SDS011;41031;44.750;11.308;2023-08-24T00:52:44;10.93;;;9.60;;
55134;SDS011;41031;44.750;11.308;2023-08-24T00:55:13;11.27;;;8.83;;
55134;SDS011;41031;44.750;11.308;2023-08-24T00:57:40;10.80;;;8.73;;
55134;SDS011;41031;44.750;11.308;2023-08-24T01:00:08;9.80;;;8.90;;
55134;SDS011;41031;44.750;11.308;2023-08-24T01:02:37;11.17;;;9.83;;
55134;SDS011;41031;44.750;11.308;2023-08-24T01:05:05;10.00;;;8.97;;
55134;SDS011;41031;44.750;11.308;2023-08-24T01:07:33;15.90;;;10.80;;
55134;SDS011;41031;44.750;11.308;2023-08-24T01:10:03;15.37;;;11.67;;
55134;SDS011;41031;44.750;11.308;2023-08-24T01:12:36;19.50;;;11.37;;
55134;SDS011;41031;44.750;11.308;2023-08-24T01:15:24;18.70;;;11.57;;
55134;SDS011;41031;44.750;11.308;2023-08-24T01:18:13;18.10;;;10.60;;
55134;SDS011;41031;44.750;11.308;2023-08-24T01:20:43;10.67;;;8.93;;
55134;SDS011;41031;44.750;11.308;2023-08-24T01:28:26;22.27;;;10.13;;
55134;SDS011;41031;44.750;11.308;2023-08-24T01:30:53;16.93;;;9.90;;
55134;SDS011;41031;44.750;11.308;2023-08-24T01:33:21;12.53;;;9.33;;
55134;SDS011;41031;44.750;11.308;2023-08-24T01:35:48;14.00;;;10.20;;
55134;SDS011;41031;44.750;11.308;2023-08-24T01:38:15;13.87;;;10.80;;
55134;SDS011;41031;44.750;11.308;2023-08-24T01:40:45;11.40;;;10.10;;
55134;SDS011;41031;44.750;11.308;2023-08-24T01:43:24;12.50;;;11.20;;
55134;SDS011;41031;44.750;11.308;2023-08-24T01:46:08;12.17;;;10.17;;
55134;SDS011;41031;44.750;11.308;2023-08-24T01:48:39;13.47;;;11.13;;
55134;SDS011;41031;44.750;11.308;2023-08-24T01:51:07;10.77;;;9.60;;
55134;SDS011;41031;44.750;11.308;2023-08-24T01:53:36;11.60;;;10.40;;
55134;SDS011;41031;44.750;11.308;2023-08-24T01:56:15;11.93;;;10.73;;
55134;SDS011;41031;44.750;11.308;2023-08-24T01:58:43;13.17;;;10.50;;
55134;SDS011;41031;44.750;11.308;2023-08-24T02:01:10;14.10;;;10.33;;
55134;SDS011;41031;44.750;11.308;2023-08-24T02:03:39;13.20;;;10.07;;
55134;SDS011;41031;44.750;11.308;2023-08-24T02:06:07;12.13;;;9.70;;
55134;SDS011;41031;44.750;11.308;2023-08-24T02:08:34;11.43;;;10.00;;
55134;SDS011;41031;44.750;11.308;2023-08-24T02:11:02;14.50;;;10.17;;
55134;SDS011;41031;44.750;11.308;2023-08-24T02:13:31;13.00;;;9.40;;
55134;SDS011;41031;44.750;11.308;2023-08-24T02:16:02;15.97;;;9.67;;
55134;SDS011;41031;44.750;11.308;2023-08-24T02:18:30;12.73;;;9.87;;
55134;SDS011;41031;44.750;11.308;2023-08-24T02:20:57;18.93;;;10.17;;
55134;SDS011;41031;44.750;11.308;2023-08-24T02:23:24;13.37;;;9.43;;
55134;SDS011;41031;44.750;11.308;2023-08-24T02:25:53;12.53;;;9.73;;
55134;SDS011;41031;44.750;11.308;2023-08-24T02:28:22;14.43;;;10.60;;
55134;SDS011;41031;44.750;11.308;2023-08-24T02:30:49;12.87;;;9.10;;
55134;SDS011;41031;44.750;11.308;2023-08-24T02:33:16;14.53;;;10.53;;
55134;SDS011;41031;44.750;11.308;2023-08-24T02:35:43;13.60;;;10.67;;
55134;SDS011;41031;44.750;11.308;2023-08-24T02:38:13;12.37;;;10.40;;
55134;SDS011;41031;44.750;11.308;2023-08-24T02:40:40;14.57;;;11.77;;
55134;SDS011;41031;44.750;11.308;2023-08-24T02:43:07;10.87;;;9.87;;
55134;SDS011;41031;44.750;11.308;2023-08-24T02:45:34;15.60;;;11.30;;
55134;SDS011;41031;44.750;11.308;2023-08-24T02:48:01;15.57;;;13.13;;
55134;SDS011;41031;44.750;11.308;2023-08-24T02:50:29;19.90;;;11.77;;
55134;SDS011;41031;44.750;11.308;2023-08-24T02:52:56;17.67;;;12.40;;
55134;SDS011;41031;44.750;11.308;2023-08-24T02:55:24;14.13;;;12.53;;
55134;SDS011;41031;44.750;11.308;2023-08-24T02:57:51;13.97;;;11.53;;
55134;SDS011;41031;44.750;11.308;2023-08-24T03:00:18;14.47;;;11.40;;
55134;SDS011;41031;44.750;11.308;2023-08-24T03:02:45;15.27;;;12.17;;
55134;SDS011;41031;44.750;11.308;2023-08-24T03:05:13;16.97;;;12.33;;
55134;SDS011;41031;44.750;11.308;2023-08-24T03:07:40;16.83;;;12.20;;
55134;SDS011;41031;44.750;11.308;2023-08-24T03:10:08;11.90;;;10.70;;
55134;SDS011;41031;44.750;11.308;2023-08-24T03:12:36;15.23;;;10.80;;
55134;SDS011;41031;44.750;11.308;2023-08-24T03:15:03;11.67;;;10.57;;
55134;SDS011;41031;44.750;11.308;2023-08-24T03:17:32;12.33;;;10.60;;
55134;SDS011;41031;44.750;11.308;2023-08-24T03:19:59;13.57;;;10.50;;
55134;SDS011;41031;44.750;11.308;2023-08-24T03:22:26;16.73;;;9.73;;
55134;SDS011;41031;44.750;11.308;2023-08-24T03:24:53;13.67;;;10.57;;
55134;SDS011;41031;44.750;11.308;2023-08-24T03:27:20;11.67;;;10.53;;
55134;SDS011;41031;44.750;11.308;2023-08-24T03:29:47;18.50;;;11.17;;
55134;SDS011;41031;44.750;11.308;2023-08-24T03:32:15;13.43;;;10.47;;
55134;SDS011;41031;44.750;11.308;2023-08-24T03:34:42;14.70;;;10.47;;
55134;SDS011;41031;44.750;11.308;2023-08-24T03:37:09;14.20;;;10.37;;
55134;SDS011;41031;44.750;11.308;2023-08-24T03:39:36;14.30;;;11.63;;
55134;SDS011;41031;44.750;11.308;2023-08-24T03:42:04;16.47;;;10.90;;
55134;SDS011;41031;44.750;11.308;2023-08-24T03:44:32;12.60;;;10.60;;
55134;SDS011;41031;44.750;11.308;2023-08-24T03:47:00;15.33;;;11.80;;
55134;SDS011;41031;44.750;11.308;2023-08-24T03:49:28;12.20;;;10.93;;
55134;SDS011;41031;44.750;11.308;2023-08-24T03:51:55;17.47;;;12.50;;
55134;SDS011;41031;44.750;11.308;2023-08-24T03:54:23;14.93;;;12.13;;
55134;SDS011;41031;44.750;11.308;2023-08-24T03:56:50;12.97;;;11.77;;
55134;SDS011;41031;44.750;11.308;2023-08-24T03:59:17;15.73;;;12.87;;
55134;SDS011;41031;44.750;11.308;2023-08-24T04:01:44;12.73;;;11.53;;
55134;SDS011;41031;44.750;11.308;2023-08-24T04:04:10;17.43;;;10.97;;
55134;SDS011;41031;44.750;11.308;2023-08-24T04:06:37;16.30;;;12.43;;
55134;SDS011;41031;44.750;11.308;2023-08-24T04:09:05;13.57;;;10.97;;
55134;SDS011;41031;44.750;11.308;2023-08-24T04:11:33;15.40;;;10.97;;
55134;SDS011;41031;44.750;11.308;2023-08-24T04:14:00;12.00;;;10.90;;
55134;SDS011;41031;44.750;11.308;2023-08-24T04:16:27;12.03;;;10.53;;
55134;SDS011;41031;44.750;11.308;2023-08-24T04:18:54;14.80;;;9.37;;
55134;SDS011;41031;44.750;11.308;2023-08-24T04:21:22;11.07;;;8.83;;
55134;SDS011;41031;44.750;11.308;2023-08-24T04:23:49;12.07;;;9.83;;
55134;SDS011;41031;44.750;11.308;2023-08-24T04:26:15;11.63;;;10.43;;
55134;SDS011;41031;44.750;11.308;2023-08-24T04:28:42;11.03;;;10.03;;
55134;SDS011;41031;44.750;11.308;2023-08-24T04:31:09;13.87;;;8.97;;
55134;SDS011;41031;44.750;11.308;2023-08-24T04:33:36;13.57;;;8.60;;
55134;SDS011;41031;44.750;11.308;2023-08-24T04:36:03;12.77;;;8.07;;
55134;SDS011;41031;44.750;11.308;2023-08-24T04:38:31;11.60;;;7.37;;
55134;SDS011;41031;44.750;11.308;2023-08-24T04:40:57;11.57;;;8.27;;
55134;SDS011;41031;44.750;11.308;2023-08-24T04:43:24;7.80;;;6.67;;
55134;SDS011;41031;44.750;11.308;2023-08-24T04:45:54;8.83;;;5.87;;
55134;SDS011;41031;44.750;11.308;2023-08-24T04:48:21;8.00;;;6.90;;
55134;SDS011;41031;44.750;11.308;2023-08-24T04:50:49;11.07;;;6.03;;
55134;SDS011;41031;44.750;11.308;2023-08-24T04:53:17;7.03;;;5.97;;
55134;SDS011;41031;44.750;11.308;2023-08-24T04:55:45;7.43;;;6.73;;
55134;SDS011;41031;44.750;11.308;2023-08-24T04:58:13;8.13;;;6.80;;
55134;SDS011;41031;44.750;11.308;2023-08-24T05:00:40;9.17;;;6.20;;
55134;SDS011;41031;44.750;11.308;2023-08-24T05:03:07;10.20;;;6.80;;
55134;SDS011;41031;44.750;11.308;2023-08-24T05:05:36;7.63;;;6.93;;
55134;SDS011;41031;44.750;11.308;2023-08-24T05:08:04;8.47;;;6.87;;
55134;SDS011;41031;44.750;11.308;2023-08-24T05:10:33;6.83;;;6.10;;
55134;SDS011;41031;44.750;11.308;2023-08-24T05:13:00;7.40;;;5.67;;
55134;SDS011;41031;44.750;11.308;2023-08-24T05:15:28;12.27;;;6.67;;
55134;SDS011;41031;44.750;11.308;2023-08-24T05:17:55;8.37;;;6.50;;
55134;SDS011;41031;44.750;11.308;2023-08-24T05:20:22;7.57;;;5.80;;
55134;SDS011;41031;44.750;11.308;2023-08-24T05:22:49;6.00;;;5.50;;
55134;SDS011;41031;44.750;11.308;2023-08-24T05:25:16;6.43;;;5.83;;
55134;SDS011;41031;44.750;11.308;2023-08-24T05:27:44;8.23;;;6.30;;
55134;SDS011;41031;44.750;11.308;2023-08-24T05:30:11;7.10;;;6.50;;
55134;SDS011;41031;44.750;11.308;2023-08-24T05:32:38;8.33;;;5.97;;
55134;SDS011;41031;44.750;11.308;2023-08-24T05:35:05;7.70;;;6.07;;
55134;SDS011;41031;44.750;11.308;2023-08-24T05:37:33;6.43;;;5.73;;
55134;SDS011;41031;44.750;11.308;2023-08-24T05:40:01;6.07;;;5.17;;
55134;SDS011;41031;44.750;11.308;2023-08-24T05:42:30;7.07;;;5.20;;
55134;SDS011;41031;44.750;11.308;2023-08-24T05:44:57;9.43;;;6.37;;
55134;SDS011;41031;44.750;11.308;2023-08-24T05:47:24;6.27;;;5.67;;
55134;SDS011;41031;44.750;11.308;2023-08-24T05:49:51;7.23;;;6.03;;
55134;SDS011;41031;44.750;11.308;2023-08-24T05:52:18;6.40;;;5.90;;
55134;SDS011;41031;44.750;11.308;2023-08-24T05:54:45;8.70;;;6.00;;
55134;SDS011;41031;44.750;11.308;2023-08-24T05:57:12;6.07;;;5.40;;
55134;SDS011;41031;44.750;11.308;2023-08-24T05:59:39;8.47;;;5.97;;
55134;SDS011;41031;44.750;11.308;2023-08-24T06:02:06;6.40;;;5.33;;
55134;SDS011;41031;44.750;11.308;2023-08-24T06:04:33;7.77;;;5.70;;
55134;SDS011;41031;44.750;11.308;2023-08-24T06:07:00;8.10;;;6.17;;
55134;SDS011;41031;44.750;11.308;2023-08-24T06:09:27;9.17;;;6.13;;
55134;SDS011;41031;44.750;11.308;2023-08-24T06:11:54;9.20;;;6.97;;
55134;SDS011;41031;44.750;11.308;2023-08-24T06:14:21;6.07;;;5.47;;
55134;SDS011;41031;44.750;11.308;2023-08-24T06:16:48;8.40;;;7.60;;
55134;SDS011;41031;44.750;11.308;2023-08-24T06:19:15;17.20;;;13.93;;
55134;SDS011;41031;44.750;11.308;2023-08-24T06:21:42;26.63;;;22.17;;
55134;SDS011;41031;44.750;11.308;2023-08-24T06:24:09;30.67;;;26.43;;
55134;SDS011;41031;44.750;11.308;2023-08-24T06:26:36;35.70;;;31.47;;
55134;SDS011;41031;44.750;11.308;2023-08-24T06:29:03;25.63;;;20.43;;
55134;SDS011;41031;44.750;11.308;2023-08-24T06:31:30;20.17;;;18.03;;
55134;SDS011;41031;44.750;11.308;2023-08-24T06:33:57;40.30;;;34.37;;
55134;SDS011;41031;44.750;11.308;2023-08-24T06:36:24;48.83;;;42.43;;
55134;SDS011;41031;44.750;11.308;2023-08-24T06:38:51;48.20;;;41.37;;
55134;SDS011;41031;44.750;11.308;2023-08-24T06:41:19;46.30;;;36.97;;
55134;SDS011;41031;44.750;11.308;2023-08-24T06:43:46;39.80;;;35.30;;
55134;SDS011;41031;44.750;11.308;2023-08-24T06:46:13;27.90;;;24.90;;
55134;SDS011;41031;44.750;11.308;2023-08-24T06:48:40;16.30;;;14.73;;
55134;SDS011;41031;44.750;11.308;2023-08-24T06:51:11;13.27;;;11.17;;
55134;SDS011;41031;44.750;11.308;2023-08-24T06:53:38;7.73;;;6.93;;
55134;SDS011;41031;44.750;11.308;2023-08-24T06:56:05;13.70;;;7.17;;
55134;SDS011;41031;44.750;11.308;2023-08-24T06:58:32;8.10;;;6.30;;
55134;SDS011;41031;44.750;11.308;2023-08-24T07:00:59;10.80;;;7.20;;
55134;SDS011;41031;44.750;11.308;2023-08-24T07:03:26;8.70;;;6.87;;
55134;SDS011;41031;44.750;11.308;2023-08-24T07:05:53;10.03;;;6.10;;
55134;SDS011;41031;44.750;11.308;2023-08-24T07:08:20;18.67;;;6.30;;
55134;SDS011;41031;44.750;11.308;2023-08-24T07:10:47;11.67;;;6.00;;
55134;SDS011;41031;44.750;11.308;2023-08-24T07:13:15;9.30;;;6.27;;
55134;SDS011;41031;44.750;11.308;2023-08-24T07:15:42;7.63;;;6.80;;
55134;SDS011;41031;44.750;11.308;2023-08-24T07:18:09;8.70;;;5.93;;
55134;SDS011;41031;44.750;11.308;2023-08-24T07:20:37;9.57;;;6.60;;
55134;SDS011;41031;44.750;11.308;2023-08-24T07:23:04;10.80;;;6.53;;
55134;SDS011;41031;44.750;11.308;2023-08-24T07:25:31;13.00;;;6.17;;
55134;SDS011;41031;44.750;11.308;2023-08-24T07:27:58;7.50;;;6.70;;
55134;SDS011;41031;44.750;11.308;2023-08-24T07:30:25;8.33;;;6.43;;
55134;SDS011;41031;44.750;11.308;2023-08-24T07:32:59;8.73;;;6.73;;
55134;SDS011;41031;44.750;11.308;2023-08-24T07:35:27;10.33;;;6.33;;
55134;SDS011;41031;44.750;11.308;2023-08-24T07:37:54;10.37;;;6.27;;
55134;SDS011;41031;44.750;11.308;2023-08-24T07:40:22;9.77;;;7.17;;
55134;SDS011;41031;44.750;11.308;2023-08-24T07:42:50;9.97;;;7.37;;
55134;SDS011;41031;44.750;11.308;2023-08-24T07:45:23;12.37;;;6.73;;
55134;SDS011;41031;44.750;11.308;2023-08-24T07:47:50;7.10;;;6.40;;
55134;SDS011;41031;44.750;11.308;2023-08-24T07:50:18;7.70;;;6.60;;
55134;SDS011;41031;44.750;11.308;2023-08-24T07:52:44;11.23;;;7.10;;
55134;SDS011;41031;44.750;11.308;2023-08-24T07:55:11;9.97;;;6.43;;
55134;SDS011;41031;44.750;11.308;2023-08-24T07:57:38;7.37;;;6.70;;
55134;SDS011;41031;44.750;11.308;2023-08-24T08:00:05;15.03;;;6.80;;
55134;SDS011;41031;44.750;11.308;2023-08-24T08:02:38;8.43;;;6.60;;
55134;SDS011;41031;44.750;11.308;2023-08-24T08:05:05;7.67;;;6.97;;
55134;SDS011;41031;44.750;11.308;2023-08-24T08:07:34;8.67;;;6.87;;
55134;SDS011;41031;44.750;11.308;2023-08-24T08:10:01;8.30;;;6.60;;
55134;SDS011;41031;44.750;11.308;2023-08-24T08:12:28;12.20;;;6.87;;
55134;SDS011;41031;44.750;11.308;2023-08-24T08:14:58;7.27;;;6.50;;
55134;SDS011;41031;44.750;11.308;2023-08-24T08:17:26;12.10;;;6.77;;
55134;SDS011;41031;44.750;11.308;2023-08-24T08:19:57;7.47;;;6.72;;
55134;SDS011;41031;44.750;11.308;2023-08-24T08:22:24;8.70;;;6.90;;
55134;SDS011;41031;44.750;11.308;2023-08-24T08:24:52;9.17;;;6.87;;
55134;SDS011;41031;44.750;11.308;2023-08-24T08:27:22;11.23;;;7.17;;
55134;SDS011;41031;44.750;11.308;2023-08-24T08:29:50;8.45;;;7.38;;
55134;SDS011;41031;44.750;11.308;2023-08-24T08:32:17;7.78;;;6.40;;
55134;SDS011;41031;44.750;11.308;2023-08-24T08:34:44;9.93;;;7.15;;
55134;SDS011;41031;44.750;11.308;2023-08-24T08:37:11;10.45;;;6.90;;
55134;SDS011;41031;44.750;11.308;2023-08-24T08:39:38;6.97;;;6.28;;
55134;SDS011;41031;44.750;11.308;2023-08-24T08:42:09;10.57;;;7.20;;
55134;SDS011;41031;44.750;11.308;2023-08-24T08:44:38;10.65;;;7.55;;
55134;SDS011;41031;44.750;11.308;2023-08-24T08:47:10;9.90;;;7.82;;
55134;SDS011;41031;44.750;11.308;2023-08-24T08:49:42;12.55;;;7.78;;
55134;SDS011;41031;44.750;11.308;2023-08-24T08:52:09;9.10;;;7.40;;
55134;SDS011;41031;44.750;11.308;2023-08-24T08:54:37;8.43;;;7.47;;
55134;SDS011;41031;44.750;11.308;2023-08-24T08:57:04;9.30;;;7.25;;
55134;SDS011;41031;44.750;11.308;2023-08-24T08:59:31;9.63;;;7.13;;
55134;SDS011;41031;44.750;11.308;2023-08-24T09:02:02;10.13;;;7.03;;
55134;SDS011;41031;44.750;11.308;2023-08-24T09:04:31;9.30;;;5.93;;
55134;SDS011;41031;44.750;11.308;2023-08-24T09:06:59;9.80;;;7.88;;
55134;SDS011;41031;44.750;11.308;2023-08-24T09:09:30;8.65;;;7.50;;
55134;SDS011;41031;44.750;11.308;2023-08-24T09:11:59;8.70;;;7.30;;
55134;SDS011;41031;44.750;11.308;2023-08-24T09:14:27;7.93;;;7.22;;
55134;SDS011;41031;44.750;11.308;2023-08-24T09:16:54;8.95;;;8.00;;
55134;SDS011;41031;44.750;11.308;2023-08-24T09:19:26;8.60;;;7.68;;
55134;SDS011;41031;44.750;11.308;2023-08-24T09:21:58;8.77;;;7.65;;
55134;SDS011;41031;44.750;11.308;2023-08-24T09:24:30;9.68;;;7.43;;
55134;SDS011;41031;44.750;11.308;2023-08-24T09:27:05;9.57;;;7.68;;
55134;SDS011;41031;44.750;11.308;2023-08-24T09:29:42;13.30;;;7.55;;
55134;SDS011;41031;44.750;11.308;2023-08-24T09:32:09;8.73;;;7.70;;
55134;SDS011;41031;44.750;11.308;2023-08-24T09:34:37;9.40;;;7.40;;
55134;SDS011;41031;44.750;11.308;2023-08-24T09:37:04;8.40;;;7.55;;
55134;SDS011;41031;44.750;11.308;2023-08-24T09:39:39;8.93;;;8.02;;
55134;SDS011;41031;44.750;11.308;2023-08-24T09:42:06;10.65;;;7.13;;
55134;SDS011;41031;44.750;11.308;2023-08-24T09:44:33;13.57;;;7.72;;
55134;SDS011;41031;44.750;11.308;2023-08-24T09:47:00;7.07;;;6.47;;
55134;SDS011;41031;44.750;11.308;2023-08-24T09:49:28;6.82;;;6.32;;
55134;SDS011;41031;44.750;11.308;2023-08-24T09:51:55;15.52;;;6.53;;
55134;SDS011;41031;44.750;11.308;2023-08-24T09:54:26;6.18;;;5.68;;
55134;SDS011;41031;44.750;11.308;2023-08-24T09:56:55;5.78;;;5.20;;
55134;SDS011;41031;44.750;11.308;2023-08-24T09:59:23;6.15;;;5.35;;
55134;SDS011;41031;44.750;11.308;2023-08-24T10:01:54;6.45;;;5.85;;
55134;SDS011;41031;44.750;11.308;2023-08-24T10:04:24;8.38;;;6.13;;
55134;SDS011;41031;44.750;11.308;2023-08-24T10:06:52;6.63;;;5.85;;
55134;SDS011;41031;44.750;11.308;2023-08-24T10:09:31;6.03;;;5.53;;
55134;SDS011;41031;44.750;11.308;2023-08-24T10:12:03;8.40;;;5.85;;
55134;SDS011;41031;44.750;11.308;2023-08-24T10:14:34;7.90;;;6.22;;
55134;SDS011;41031;44.750;11.308;2023-08-24T10:17:22;7.95;;;6.03;;
55134;SDS011;41031;44.750;11.308;2023-08-24T10:19:50;10.93;;;5.72;;
55134;SDS011;41031;44.750;11.308;2023-08-24T10:22:21;6.45;;;5.30;;
55134;SDS011;41031;44.750;11.308;2023-08-24T10:24:48;7.53;;;6.22;;
55134;SDS011;41031;44.750;11.308;2023-08-24T10:27:16;6.80;;;6.10;;
55134;SDS011;41031;44.750;11.308;2023-08-24T10:29:45;7.03;;;6.43;;
55134;SDS011;41031;44.750;11.308;2023-08-24T10:32:12;6.07;;;5.50;;
55134;SDS011;41031;44.750;11.308;2023-08-24T10:34:41;6.72;;;5.97;;
55134;SDS011;41031;44.750;11.308;2023-08-24T10:37:08;6.78;;;6.07;;
55134;SDS011;41031;44.750;11.308;2023-08-24T10:39:37;7.95;;;4.90;;
55134;SDS011;41031;44.750;11.308;2023-08-24T10:42:11;7.10;;;5.10;;
55134;SDS011;41031;44.750;11.308;2023-08-24T10:44:39;6.38;;;5.15;;
55134;SDS011;41031;44.750;11.308;2023-08-24T10:47:20;6.25;;;5.60;;
55134;SDS011;41031;44.750;11.308;2023-08-24T10:52:23;7.15;;;5.28;;
55134;SDS011;41031;44.750;11.308;2023-08-24T10:55:00;8.73;;;4.97;;
55134;SDS011;41031;44.750;11.308;2023-08-24T10:57:35;6.95;;;5.03;;
55134;SDS011;41031;44.750;11.308;2023-08-24T11:07:51;6.88;;;5.00;;
55134;SDS011;41031;44.750;11.308;2023-08-24T11:10:25;6.43;;;5.63;;
55134;SDS011;41031;44.750;11.308;2023-08-24T11:15:39;8.85;;;5.13;;
55134;SDS011;41031;44.750;11.308;2023-08-24T11:18:13;5.95;;;5.45;;
55134;SDS011;41031;44.750;11.308;2023-08-24T11:23:23;5.80;;;5.30;;
55134;SDS011;41031;44.750;11.308;2023-08-24T11:25:52;6.32;;;5.53;;
55134;SDS011;41031;44.750;11.308;2023-08-24T11:28:24;6.22;;;5.63;;
55134;SDS011;41031;44.750;11.308;2023-08-24T11:30:52;6.07;;;5.47;;
55134;SDS011;41031;44.750;11.308;2023-08-24T11:33:27;6.30;;;5.70;;
55134;SDS011;41031;44.750;11.308;2023-08-24T11:35:56;9.50;;;6.13;;
55134;SDS011;41031;44.750;11.308;2023-08-24T11:38:23;9.80;;;5.78;;
55134;SDS011;41031;44.750;11.308;2023-08-24T11:40:50;8.27;;;5.22;;
55134;SDS011;41031;44.750;11.308;2023-08-24T11:43:24;9.18;;;5.10;;
55134;SDS011;41031;44.750;11.308;2023-08-24T11:45:54;6.22;;;5.72;;
55134;SDS011;41031;44.750;11.308;2023-08-24T11:48:25;6.28;;;5.68;;
55134;SDS011;41031;44.750;11.308;2023-08-24T11:50:53;8.32;;;5.43;;
55134;SDS011;41031;44.750;11.308;2023-08-24T11:53:21;6.72;;;5.20;;
55134;SDS011;41031;44.750;11.308;2023-08-24T11:55:53;5.75;;;5.25;;
55134;SDS011;41031;44.750;11.308;2023-08-24T11:58:31;5.68;;;4.97;;
55134;SDS011;41031;44.750;11.308;2023-08-24T12:00:58;7.82;;;5.25;;
55134;SDS011;41031;44.750;11.308;2023-08-24T12:03:26;12.70;;;5.15;;
55134;SDS011;41031;44.750;11.308;2023-08-24T12:05:53;5.88;;;5.15;;
55134;SDS011;41031;44.750;11.308;2023-08-24T12:08:25;7.43;;;5.50;;
55134;SDS011;41031;44.750;11.308;2023-08-24T12:10:52;7.95;;;5.20;;
55134;SDS011;41031;44.750;11.308;2023-08-24T12:13:19;5.75;;;5.25;;
55134;SDS011;41031;44.750;11.308;2023-08-24T12:15:46;6.15;;;5.38;;
55134;SDS011;41031;44.750;11.308;2023-08-24T12:18:16;10.75;;;5.97;;
55134;SDS011;41031;44.750;11.308;2023-08-24T12:20:43;7.90;;;5.35;;
55134;SDS011;41031;44.750;11.308;2023-08-24T12:23:10;8.55;;;5.82;;
55134;SDS011;41031;44.750;11.308;2023-08-24T12:25:38;6.38;;;5.70;;
55134;SDS011;41031;44.750;11.308;2023-08-24T12:28:10;6.03;;;5.50;;
55134;SDS011;41031;44.750;11.308;2023-08-24T12:30:45;6.13;;;5.47;;
55134;SDS011;41031;44.750;11.308;2023-08-24T12:33:26;8.48;;;5.47;;
55134;SDS011;41031;44.750;11.308;2023-08-24T12:35:54;7.90;;;5.15;;
55134;SDS011;41031;44.750;11.308;2023-08-24T12:38:22;5.85;;;5.35;;
55134;SDS011;41031;44.750;11.308;2023-08-24T12:40:50;7.85;;;5.18;;
55134;SDS011;41031;44.750;11.308;2023-08-24T12:43:18;5.90;;;5.32;;
55134;SDS011;41031;44.750;11.308;2023-08-24T12:45:45;5.75;;;5.25;;
55134;SDS011;41031;44.750;11.308;2023-08-24T12:48:12;6.10;;;5.57;;
55134;SDS011;41031;44.750;11.308;2023-08-24T12:50:40;7.97;;;4.50;;
55134;SDS011;41031;44.750;11.308;2023-08-24T12:53:07;5.78;;;4.72;;
55134;SDS011;41031;44.750;11.308;2023-08-24T12:55:35;6.53;;;5.05;;
55134;SDS011;41031;44.750;11.308;2023-08-24T12:58:03;9.38;;;4.72;;
55134;SDS011;41031;44.750;11.308;2023-08-24T13:00:32;5.63;;;5.13;;
55134;SDS011;41031;44.750;11.308;2023-08-24T13:02:59;5.43;;;4.93;;
55134;SDS011;41031;44.750;11.308;2023-08-24T13:05:26;5.65;;;5.15;;
55134;SDS011;41031;44.750;11.308;2023-08-24T13:07:53;9.05;;;5.38;;
55134;SDS011;41031;44.750;11.308;2023-08-24T13:10:21;5.60;;;4.97;;
55134;SDS011;41031;44.750;11.308;2023-08-24T13:12:48;7.60;;;5.47;;
55134;SDS011;41031;44.750;11.308;2023-08-24T13:15:15;6.25;;;4.82;;
55134;SDS011;41031;44.750;11.308;2023-08-24T13:17:42;6.43;;;5.15;;
55134;SDS011;41031;44.750;11.308;2023-08-24T13:20:10;10.40;;;5.65;;
55134;SDS011;41031;44.750;11.308;2023-08-24T13:22:37;9.98;;;5.75;;
55134;SDS011;41031;44.750;11.308;2023-08-24T13:25:04;6.88;;;5.63;;
55134;SDS011;41031;44.750;11.308;2023-08-24T13:27:31;7.72;;;5.50;;
55134;SDS011;41031;44.750;11.308;2023-08-24T13:30:02;5.03;;;4.60;;
55134;SDS011;41031;44.750;11.308;2023-08-24T13:32:30;8.35;;;4.90;;
55134;SDS011;41031;44.750;11.308;2023-08-24T13:34:57;6.55;;;4.95;;
55134;SDS011;41031;44.750;11.308;2023-08-24T13:37:24;7.10;;;4.70;;
55134;SDS011;41031;44.750;11.308;2023-08-24T13:39:51;5.28;;;4.85;;
55134;SDS011;41031;44.750;11.308;2023-08-24T13:42:18;6.82;;;5.40;;
55134;SDS011;41031;44.750;11.308;2023-08-24T13:44:46;6.03;;;5.45;;
55134;SDS011;41031;44.750;11.308;2023-08-24T13:47:13;5.57;;;4.57;;
55134;SDS011;41031;44.750;11.308;2023-08-24T13:49:40;7.72;;;5.45;;
55134;SDS011;41031;44.750;11.308;2023-08-24T13:52:08;5.75;;;4.95;;
55134;SDS011;41031;44.750;11.308;2023-08-24T13:54:35;6.00;;;4.75;;
55134;SDS011;41031;44.750;11.308;2023-08-24T13:57:02;5.35;;;4.55;;
55134;SDS011;41031;44.750;11.308;2023-08-24T13:59:29;8.07;;;4.45;;
55134;SDS011;41031;44.750;11.308;2023-08-24T14:01:56;7.47;;;4.93;;
55134;SDS011;41031;44.750;11.308;2023-08-24T14:04:23;6.43;;;4.50;;
55134;SDS011;41031;44.750;11.308;2023-08-24T14:06:50;5.65;;;5.13;;
55134;SDS011;41031;44.750;11.308;2023-08-24T14:09:17;5.10;;;4.60;;
55134;SDS011;41031;44.750;11.308;2023-08-24T14:11:44;7.82;;;4.65;;
55134;SDS011;41031;44.750;11.308;2023-08-24T14:14:11;6.50;;;4.82;;
55134;SDS011;41031;44.750;11.308;2023-08-24T14:16:38;11.75;;;4.93;;
55134;SDS011;41031;44.750;11.308;2023-08-24T14:19:05;5.10;;;4.70;;
55134;SDS011;41031;44.750;11.308;2023-08-24T14:21:32;6.38;;;4.60;;
55134;SDS011;41031;44.750;11.308;2023-08-24T14:24:10;6.28;;;4.70;;
55134;SDS011;41031;44.750;11.308;2023-08-24T14:26:37;6.00;;;5.15;;
55134;SDS011;41031;44.750;11.308;2023-08-24T14:29:06;8.27;;;4.53;;
55134;SDS011;41031;44.750;11.308;2023-08-24T14:31:32;6.32;;;4.70;;
55134;SDS011;41031;44.750;11.308;2023-08-24T14:34:00;9.90;;;4.65;;
55134;SDS011;41031;44.750;11.308;2023-08-24T14:36:28;5.40;;;4.90;;
55134;SDS011;41031;44.750;11.308;2023-08-24T14:38:55;11.55;;;4.95;;
55134;SDS011;41031;44.750;11.308;2023-08-24T14:41:22;8.25;;;4.95;;
55134;SDS011;41031;44.750;11.308;2023-08-24T14:43:49;5.60;;;4.15;;
55134;SDS011;41031;44.750;11.308;2023-08-24T14:46:16;6.78;;;4.57;;
55134;SDS011;41031;44.750;11.308;2023-08-24T14:48:43;4.97;;;4.55;;
55134;SDS011;41031;44.750;11.308;2023-08-24T14:51:10;5.72;;;5.22;;
55134;SDS011;41031;44.750;11.308;2023-08-24T14:53:37;6.85;;;4.43;;